Shuangcheng, China
Current Conditions -  °F | °C
As of 10:00 PM on Saturday 20 Dec 2014 (Local Time) from ZYHB Reporting Station
Haze Haze  
Wind Chill: -29°   Ceiling: Unl
Heat Index: -17°   Visibility: 1.5mi
Dew Point: -20°   Wind: 4mph
Humidity: 84%   Direction: 190°S
Pressure: 30.21"   Gusts: NA
Location:  45.35°N, 126.28°E
Report Text: ZYHB 201400Z 19002MPS 2500 BR NSC M27/M29 Q1023 NOSIG
Loading
Personal Weather Stations






























Interactive Weather Map New forecast layout! Learn more

10-Day Weather Forecast

Advertisements
Track Severe Weather on mobile